»·PEaware :: N252RK KMMH-KSLC

N252RK :: KMMH-KSLC

FLIGHT INFORMATION

Flight Status: Arrived
Operator: Privately registered:
United States
More flights under this callsign
Pilot: Ryan K. (5639)
Aircraft: GATES LEARJET LEARJET 25
(LJ25)
More flights by this aircraft type
Origin: KMMH Mammoth Yosemite
United States
Destination: KSLC Salt Lake City Intl
United States
More flights between these airports :: More routes between these airports
Route: +NIKOL1 NIKOL BVL BVL2
File this flight plan on PilotEdge
Remarks:
Altitude:
(Current/Filed)
29,000ft
Speed:
(Current/Filed)
480kts
Departed: 18-Apr-17 03:23 PM
Arrived: 18-Apr-17 04:18 PM
Distance/Time
Traveled:
371nm/0:55
Distance/Time
To Go:
Arrived

Flight Plot

Page will automatically refresh every two minutes.

Flight plan parsing failed; only flown route is shown


Map Options




Map Legend


Flown Route
Filed Route
Departure Airport
Arrival Airport
Navaid (VOR, NDB)
Fix

Horizontal Profiles

Position Reports

Time Latitude Longitude Heading Altitude Ground
Speed
18-Apr-17 15:12 37.626914 -118.842300 108 7131ft 0kts
18-Apr-17 15:13 37.626914 -118.842300 108 7131ft 0kts
18-Apr-17 15:14 37.626914 -118.842300 108 7131ft 0kts
18-Apr-17 15:15 37.626914 -118.842300 108 7131ft 0kts
18-Apr-17 15:16 37.626914 -118.842300 108 7131ft 0kts
18-Apr-17 15:17 37.626914 -118.842300 108 7131ft 0kts
18-Apr-17 15:18 37.626914 -118.842300 108 7131ft 0kts
18-Apr-17 15:19 37.626914 -118.842300 108 7131ft 0kts
18-Apr-17 15:20 37.626910 -118.842286 109 7131ft 1kts
18-Apr-17 15:21 37.625796 -118.841813 147 7131ft 6kts
18-Apr-17 15:22 37.623402 -118.833081 109 7131ft 25kts
18-Apr-17 15:23 37.621686 -118.827157 165 7130ft 2kts
18-Apr-17 15:24 37.621162 -118.828202 289 7131ft 28kts
18-Apr-17 15:25 37.638771 -118.877695 309 9447ft 238kts
18-Apr-17 15:26 37.709882 -118.853249 60 14018ft 387kts
18-Apr-17 15:27 37.752396 -118.728272 69 20736ft 406kts
18-Apr-17 15:28 37.791684 -118.586807 65 25793ft 457kts
18-Apr-17 15:29 37.894942 -118.518790 335 29138ft 432kts
18-Apr-17 15:30 38.005138 -118.581606 337 29192ft 470kts
18-Apr-17 15:31 38.118952 -118.504705 59 33654ft 521kts
18-Apr-17 15:32 38.185021 -118.336040 64 35203ft 562kts
18-Apr-17 15:33 38.265977 -118.171912 50 35192ft 552kts
18-Apr-17 15:34 38.362008 -118.019170 47 35125ft 555kts
18-Apr-17 15:35 38.458944 -117.865660 50 35036ft 558kts
18-Apr-17 15:36 38.547600 -117.703975 53 35090ft 556kts
18-Apr-17 15:37 38.636878 -117.544298 51 35108ft 552kts
18-Apr-17 15:38 38.729641 -117.388982 48 35084ft 551kts
18-Apr-17 15:39 38.822445 -117.236621 51 35022ft 551kts
18-Apr-17 15:40 38.911343 -117.077431 52 35102ft 550kts
18-Apr-17 15:40 38.984898 -116.945010 53 35141ft 550kts
18-Apr-17 15:42 39.090788 -116.760532 47 35127ft 550kts
18-Apr-17 15:43 39.184261 -116.609525 51 35127ft 550kts
18-Apr-17 15:43 39.256581 -116.474114 56 35171ft 552kts
18-Apr-17 15:45 39.356185 -116.287468 52 35106ft 550kts
18-Apr-17 15:45 39.431757 -116.156236 51 35130ft 545kts
18-Apr-17 15:46 39.522422 -116.000914 51 35090ft 541kts
18-Apr-17 15:48 39.625156 -115.816933 54 35096ft 546kts
18-Apr-17 15:48 39.697369 -115.682282 52 35174ft 550kts
18-Apr-17 15:50 39.802426 -115.494918 51 35131ft 550kts
18-Apr-17 15:50 39.877386 -115.361748 52 35125ft 550kts
18-Apr-17 15:51 39.962371 -115.199549 55 35094ft 550kts
18-Apr-17 15:52 40.049270 -115.038015 51 35061ft 552kts
18-Apr-17 15:53 40.136150 -114.876508 54 35102ft 553kts
18-Apr-17 15:54 40.224188 -114.713475 51 34901ft 537kts
18-Apr-17 15:55 40.307214 -114.556819 54 32419ft 518kts
18-Apr-17 15:56 40.385271 -114.403374 53 30437ft 501kts
18-Apr-17 15:57 40.462945 -114.258015 53 28667ft 493kts
18-Apr-17 15:58 40.539325 -114.110278 54 27145ft 487kts
18-Apr-17 15:59 40.613997 -113.964733 53 25680ft 474kts
18-Apr-17 16:00 40.692520 -113.827446 51 23813ft 466kts
18-Apr-17 16:01 40.725955 -113.671293 94 21809ft 454kts
18-Apr-17 16:02 40.723722 -113.507347 92 19640ft 445kts
18-Apr-17 16:03 40.724250 -113.349954 90 17864ft 418kts
18-Apr-17 16:04 40.723842 -113.202941 91 17130ft 392kts
18-Apr-17 16:05 40.722081 -113.060249 92 17122ft 390kts
18-Apr-17 16:06 40.720733 -112.916837 89 17134ft 398kts
18-Apr-17 16:07 40.722873 -112.771517 92 17173ft 394kts
18-Apr-17 16:08 40.719265 -112.628868 94 17133ft 388kts
18-Apr-17 16:09 40.708483 -112.490654 111 16405ft 363kts
18-Apr-17 16:10 40.675689 -112.370730 113 14230ft 340kts
18-Apr-17 16:11 40.641295 -112.258558 113 11922ft 329kts
18-Apr-17 16:12 40.605133 -112.145682 112 11972ft 351kts
18-Apr-17 16:13 40.565223 -112.028456 113 11066ft 345kts
18-Apr-17 16:14 40.563762 -111.919465 37 9435ft 292kts
18-Apr-17 16:15 40.627916 -111.933366 322 7561ft 263kts
18-Apr-17 16:16 40.688025 -111.950946 356 6708ft 181kts
18-Apr-17 16:17 40.726472 -111.955483 355 5179ft 135kts
18-Apr-17 16:18 40.762387 -111.961363 352 4515ft 123kts
18-Apr-17 16:19 40.785454 -111.962058 358 4231ft 31kts
18-Apr-17 16:20 40.788343 -111.960789 39 4231ft 0kts
18-Apr-17 16:21 40.785536 -111.960032 180 4231ft 32kts
18-Apr-17 16:22 40.777580 -111.959227 154 4230ft 15kts

Navigation Log

Ident Type
Flight plan parsing failed, navigation log unavailable